San Francisco, California
Traffic Map
Current Weather Conditions
San Francisco, California
Overcast Moderate Rain
Overcast
49°
Feels Like: 44°
Wind Chill: 44° Ceiling: 3200
Heat Index: 49° Visibility: 3mi
Dew Point: 43° Wind: 12mph
Humidity: 80% Direction: 240° (WSW)
Pressure: 29.37in Gusts: 0mph
Raw Report DataKSFO 210112Z 24010KT 3SM RA FEW025 BKN032 OVC042 09/06 A2937 RMK AO2 SFC VIS 4 P0003 T00940061
Traffic Incident Summary
Active as of:
Severity:
Category:
InformationThere was an issue retrieving the traffic information for this location. Please try a different location or try again shortly.
Advertisements
Track Severe Weather on mobile